createdAt,value
2023-03-06T00:01:05.664Z,7.30
2023-03-06T00:03:32.222Z,6.60
2023-03-06T00:05:59.241Z,6.20
2023-03-06T00:08:27.726Z,6.70
2023-03-06T00:10:54.999Z,7.00
2023-03-06T00:13:21.766Z,6.40
2023-03-06T00:15:48.957Z,7.00
2023-03-06T00:18:15.624Z,6.50
2023-03-06T00:20:43.972Z,7.00
2023-03-06T00:23:11.405Z,6.00
2023-03-06T00:25:41.698Z,6.10
2023-03-06T00:28:08.193Z,6.80
2023-03-06T00:30:34.984Z,5.10
2023-03-06T00:33:01.554Z,5.90
2023-03-06T00:35:28.116Z,5.40
2023-03-06T00:37:54.620Z,5.50
2023-03-06T00:40:21.841Z,5.80
2023-03-06T00:42:48.645Z,5.60
2023-03-06T00:45:15.898Z,6.30
2023-03-06T00:47:42.929Z,5.90
2023-03-06T00:50:10.766Z,5.80
2023-03-06T00:52:37.379Z,6.50
2023-03-06T00:55:04.986Z,6.90
2023-03-06T00:57:31.509Z,5.50
2023-03-06T00:59:58.055Z,5.10
2023-03-06T01:02:24.964Z,5.80
2023-03-06T01:04:51.504Z,5.20
2023-03-06T01:07:17.965Z,5.40
2023-03-06T01:09:44.467Z,5.00
2023-03-06T01:12:11.007Z,5.00
2023-03-06T01:14:37.547Z,4.90
2023-03-06T01:17:04.192Z,5.20
2023-03-06T01:19:30.834Z,5.10
2023-03-06T01:21:57.420Z,5.60
2023-03-06T01:24:24.251Z,5.40
2023-03-06T01:26:50.782Z,4.90
2023-03-06T01:29:17.375Z,5.50
2023-03-06T01:31:43.886Z,5.80
2023-03-06T01:34:10.516Z,5.10
2023-03-06T01:36:37.016Z,4.60
2023-03-06T01:39:03.695Z,5.10
2023-03-06T01:41:30.187Z,5.30
2023-03-06T01:43:56.643Z,5.10
2023-03-06T01:46:28.911Z,4.60
2023-03-06T01:49:07.781Z,4.70
2023-03-06T01:52:00.125Z,4.60
2023-03-06T01:54:44.692Z,5.00
2023-03-06T01:57:20.496Z,4.80
2023-03-06T01:59:51.583Z,4.20
2023-03-06T02:02:18.451Z,4.90
2023-03-06T02:04:46.524Z,4.00
2023-03-06T02:07:16.727Z,5.20
2023-03-06T02:09:43.246Z,4.50
2023-03-06T02:12:13.042Z,4.70
2023-03-06T02:14:41.140Z,4.70
2023-03-06T02:17:10.547Z,4.60
2023-03-06T02:20:02.756Z,3.80
2023-03-06T02:22:40.115Z,4.20
2023-03-06T02:25:15.169Z,4.50
2023-03-06T02:27:41.761Z,4.70
2023-03-06T02:30:09.313Z,5.10
2023-03-06T02:32:36.013Z,4.60
2023-03-06T02:35:02.625Z,4.10
2023-03-06T02:37:29.364Z,4.60
2023-03-06T02:40:05.198Z,4.50
2023-03-06T02:42:31.827Z,4.50
2023-03-06T02:45:02.170Z,4.70
2023-03-06T02:47:28.688Z,4.60
2023-03-06T02:49:55.198Z,4.60
2023-03-06T02:52:21.663Z,4.30
2023-03-06T02:54:48.219Z,4.80
2023-03-06T02:57:14.679Z,4.40
2023-03-06T02:59:41.211Z,5.80
2023-03-06T03:02:07.757Z,4.60
2023-03-06T03:04:34.797Z,4.80
2023-03-06T03:07:01.260Z,4.40
2023-03-06T03:09:27.740Z,4.60
2023-03-06T03:11:54.208Z,5.00
2023-03-06T03:14:20.778Z,4.20
2023-03-06T03:16:47.419Z,4.20
2023-03-06T03:19:14.273Z,4.90
2023-03-06T03:21:41.462Z,5.30
2023-03-06T03:24:08.352Z,4.00
2023-03-06T03:26:34.912Z,4.20
2023-03-06T03:29:01.410Z,3.80
2023-03-06T03:31:28.187Z,4.30
2023-03-06T03:33:54.707Z,3.50
2023-03-06T03:36:21.601Z,3.70
2023-03-06T03:38:48.096Z,4.10
2023-03-06T03:41:14.569Z,4.90
2023-03-06T03:43:42.154Z,4.20
2023-03-06T03:46:08.709Z,4.70
2023-03-06T03:48:35.270Z,4.30
2023-03-06T03:51:13.768Z,4.20
2023-03-06T03:53:40.303Z,3.40
2023-03-06T03:56:07.075Z,4.20
2023-03-06T03:58:33.763Z,4.00
2023-03-06T04:01:00.540Z,5.00
2023-03-06T04:03:27.270Z,4.10
2023-03-06T04:05:53.822Z,4.40
2023-03-06T04:08:24.500Z,4.30
2023-03-06T04:10:52.026Z,4.50
2023-03-06T04:13:19.432Z,4.90
2023-03-06T04:15:47.244Z,4.70
2023-03-06T04:18:13.799Z,4.70
2023-03-06T04:20:40.270Z,4.20
2023-03-06T04:23:06.830Z,4.30
2023-03-06T04:25:33.356Z,3.80
2023-03-06T04:27:59.838Z,4.00
2023-03-06T04:30:26.333Z,4.20
2023-03-06T04:32:52.897Z,4.40
2023-03-06T04:35:19.540Z,3.80
2023-03-06T04:37:46.143Z,3.80
2023-03-06T04:40:27.723Z,4.30
2023-03-06T04:42:56.335Z,4.40
2023-03-06T04:45:23.201Z,4.90
2023-03-06T04:47:49.863Z,4.90
2023-03-06T04:50:17.926Z,4.10
2023-03-06T04:52:44.713Z,4.30
2023-03-06T04:55:15.298Z,4.50
2023-03-06T04:57:43.624Z,4.90
2023-03-06T05:00:15.244Z,4.40
2023-03-06T05:05:10.249Z,4.30
2023-03-06T05:07:37.247Z,4.70
2023-03-06T05:10:04.212Z,5.00
2023-03-06T05:12:30.673Z,5.50
2023-03-06T05:14:58.210Z,4.90
2023-03-06T05:17:24.658Z,5.00
2023-03-06T05:19:51.104Z,5.10
2023-03-06T05:22:17.585Z,4.90
2023-03-06T05:24:44.048Z,5.40
2023-03-06T05:27:10.618Z,4.80
2023-03-06T05:29:37.125Z,5.10
2023-03-06T05:32:03.698Z,5.10
2023-03-06T05:34:30.216Z,5.70
2023-03-06T05:36:56.719Z,5.10
2023-03-06T05:39:23.218Z,5.30
2023-03-06T05:41:49.684Z,4.60
2023-03-06T05:44:16.174Z,4.70
2023-03-06T05:46:42.644Z,4.40
2023-03-06T05:49:09.121Z,4.90
2023-03-06T05:51:35.609Z,5.30
2023-03-06T05:54:02.096Z,6.30
2023-03-06T05:56:28.558Z,7.00
2023-03-06T05:58:55.032Z,5.70
2023-03-06T06:01:21.509Z,7.10
2023-03-06T06:03:48.225Z,6.60
2023-03-06T06:06:15.246Z,6.10
2023-03-06T06:08:42.062Z,6.90
2023-03-06T06:11:11.261Z,6.90
2023-03-06T06:13:38.671Z,6.90
2023-03-06T06:16:13.960Z,7.10
2023-03-06T06:18:41.455Z,6.30
2023-03-06T06:21:10.103Z,6.30
2023-03-06T06:23:36.679Z,6.00
2023-03-06T06:26:05.130Z,5.90
2023-03-06T06:28:32.602Z,5.50
2023-03-06T06:30:59.595Z,5.50
2023-03-06T06:33:26.539Z,5.50
2023-03-06T06:35:53.126Z,5.50
2023-03-06T06:38:20.067Z,5.70
2023-03-06T06:41:04.289Z,6.20
2023-03-06T06:43:33.025Z,6.10
2023-03-06T06:46:19.590Z,5.60
2023-03-06T06:48:48.406Z,6.00
2023-03-06T06:51:15.357Z,6.70
2023-03-06T06:53:41.941Z,6.70
2023-03-06T06:56:08.592Z,44.50
2023-03-06T06:58:35.242Z,33.10
2023-03-06T07:01:11.361Z,19.10
2023-03-06T07:03:38.126Z,13.60
2023-03-06T07:06:06.426Z,9.50
2023-03-06T07:08:33.805Z,7.10
2023-03-06T07:11:09.851Z,6.20
2023-03-06T07:13:36.400Z,6.60
2023-03-06T07:16:03.204Z,6.60
2023-03-06T07:18:30.386Z,7.20
2023-03-06T07:20:58.172Z,8.20
2023-03-06T07:23:25.838Z,6.90
2023-03-06T07:25:54.245Z,7.30
2023-03-06T07:28:21.331Z,7.70
2023-03-06T07:30:48.109Z,7.60
2023-03-06T07:33:15.624Z,8.00
2023-03-06T07:35:43.295Z,7.80
2023-03-06T07:38:10.419Z,8.30
2023-03-06T07:40:37.748Z,9.10
2023-03-06T07:43:18.337Z,7.30
2023-03-06T07:45:45.534Z,6.80
2023-03-06T07:48:12.257Z,6.40
2023-03-06T07:50:38.732Z,7.40
2023-03-06T07:53:05.298Z,8.10
2023-03-06T07:55:31.793Z,6.90
2023-03-06T07:57:58.252Z,7.00
2023-03-06T08:00:24.968Z,7.50
2023-03-06T08:02:51.472Z,7.00
2023-03-06T08:05:19.352Z,8.40
2023-03-06T08:07:45.896Z,7.80
2023-03-06T08:10:14.712Z,8.50
2023-03-06T08:12:41.199Z,8.00
2023-03-06T08:15:10.405Z,7.30
2023-03-06T08:17:37.174Z,5.90
2023-03-06T08:20:04.715Z,4.80
2023-03-06T08:22:31.255Z,5.20
2023-03-06T08:24:57.790Z,5.50
2023-03-06T08:27:24.349Z,6.10
2023-03-06T08:29:50.835Z,6.70
2023-03-06T08:32:17.390Z,6.50
2023-03-06T08:34:43.889Z,6.60
2023-03-06T08:37:10.438Z,6.40
2023-03-06T08:39:36.953Z,5.60
2023-03-06T08:42:03.525Z,6.00
2023-03-06T08:44:30.019Z,5.40
2023-03-06T08:46:56.576Z,5.60
2023-03-06T08:49:23.229Z,5.00
2023-03-06T08:51:49.703Z,6.30
2023-03-06T08:54:16.182Z,5.20
2023-03-06T08:56:42.946Z,6.30
2023-03-06T08:59:11.133Z,5.90
2023-03-06T09:01:38.204Z,6.40
2023-03-06T09:04:10.535Z,6.30
2023-03-06T09:06:41.000Z,6.40
2023-03-06T09:09:08.453Z,5.30
2023-03-06T09:11:35.605Z,5.40
2023-03-06T09:14:02.563Z,6.90
2023-03-06T09:16:29.232Z,6.90
2023-03-06T09:18:55.778Z,7.00
2023-03-06T09:21:23.741Z,8.20
2023-03-06T09:23:51.083Z,7.90
2023-03-06T09:26:18.494Z,8.30
2023-03-06T09:28:45.486Z,12.00
2023-03-06T09:31:15.460Z,7.90
2023-03-06T09:33:42.061Z,8.30
2023-03-06T09:36:14.573Z,8.10
2023-03-06T09:38:41.080Z,8.70
2023-03-06T09:41:29.000Z,8.00
2023-03-06T09:44:01.763Z,8.40
2023-03-06T09:46:59.859Z,7.60
2023-03-06T09:49:48.290Z,7.60
2023-03-06T09:52:30.678Z,8.10
2023-03-06T09:55:02.497Z,8.90
2023-03-06T09:57:36.099Z,9.50
2023-03-06T10:00:30.836Z,8.60
2023-03-06T10:03:14.741Z,8.50
2023-03-06T10:05:47.201Z,7.90
2023-03-06T10:08:28.768Z,8.80
2023-03-06T10:11:01.586Z,8.10
2023-03-06T10:13:38.732Z,8.20
2023-03-06T10:16:30.244Z,7.90
2023-03-06T10:19:05.186Z,8.10
2023-03-06T10:21:42.369Z,8.00
2023-03-06T10:24:27.984Z,9.00
2023-03-06T10:27:00.417Z,7.80
2023-03-06T10:30:02.551Z,8.50
2023-03-06T10:33:08.002Z,7.40
2023-03-06T10:35:47.083Z,7.60
2023-03-06T10:38:33.227Z,6.70
2023-03-06T10:41:22.550Z,7.10
2023-03-06T10:44:01.035Z,8.00
2023-03-06T10:46:33.230Z,7.20
2023-03-06T10:49:03.266Z,7.50
2023-03-06T10:51:31.287Z,7.60
2023-03-06T10:54:17.247Z,13.50
2023-03-06T10:56:46.178Z,8.30
2023-03-06T10:59:19.675Z,7.20
2023-03-06T11:01:49.032Z,7.20
2023-03-06T11:04:17.095Z,7.00
2023-03-06T11:06:43.723Z,8.10
2023-03-06T11:09:22.959Z,7.90
2023-03-06T11:11:52.663Z,6.80
2023-03-06T11:14:21.477Z,6.90
2023-03-06T11:16:50.090Z,7.40
2023-03-06T11:19:24.644Z,6.70
2023-03-06T11:22:06.230Z,6.20
2023-03-06T11:24:39.526Z,6.90
2023-03-06T11:27:34.142Z,8.70
2023-03-06T11:30:05.603Z,6.90
2023-03-06T11:32:47.730Z,7.70
2023-03-06T11:35:23.742Z,7.50
2023-03-06T11:38:03.058Z,7.30
2023-03-06T11:41:08.307Z,6.10
2023-03-06T11:43:43.476Z,7.40
2023-03-06T11:46:15.871Z,6.60
2023-03-06T11:48:49.538Z,7.30
2023-03-06T11:51:21.936Z,7.50
2023-03-06T11:53:48.508Z,7.00
2023-03-06T11:56:33.694Z,22.00
2023-03-06T11:59:07.438Z,27.30
2023-03-06T12:02:03.202Z,11.20
2023-03-06T12:04:47.835Z,9.30
2023-03-06T12:07:26.751Z,7.90
2023-03-06T12:10:15.065Z,9.70
2023-03-06T12:12:56.599Z,7.40
2023-03-06T12:15:45.940Z,7.50
2023-03-06T12:18:24.597Z,7.60
2023-03-06T12:20:56.863Z,7.10
2023-03-06T12:23:41.731Z,7.40
2023-03-06T12:26:28.612Z,7.70
2023-03-06T12:29:13.190Z,6.70
2023-03-06T12:31:48.708Z,7.50
2023-03-06T12:34:32.474Z,7.40
2023-03-06T12:37:17.658Z,7.20
2023-03-06T12:39:57.025Z,8.10
2023-03-06T12:42:45.140Z,7.40
2023-03-06T12:45:31.735Z,6.80
2023-03-06T12:47:58.654Z,7.10
2023-03-06T12:50:28.265Z,6.50
2023-03-06T12:52:58.906Z,7.00
2023-03-06T12:55:26.281Z,6.60
2023-03-06T12:57:52.882Z,6.60
2023-03-06T13:00:34.448Z,7.20
2023-03-06T13:03:13.949Z,6.30
2023-03-06T13:05:55.898Z,6.90
2023-03-06T13:08:32.018Z,7.40
2023-03-06T13:11:16.509Z,7.20
2023-03-06T13:13:45.778Z,7.60
2023-03-06T13:16:18.364Z,6.40
2023-03-06T13:18:44.848Z,7.10
2023-03-06T13:21:42.127Z,6.90
2023-03-06T13:24:21.934Z,10.30
2023-03-06T13:26:49.977Z,7.10
2023-03-06T13:29:51.075Z,7.00
2023-03-06T13:32:27.879Z,8.80
2023-03-06T13:34:54.436Z,7.20
2023-03-06T13:37:20.885Z,6.70
2023-03-06T13:39:53.331Z,7.40
2023-03-06T13:42:25.968Z,6.60
2023-03-06T13:44:52.471Z,10.70
2023-03-06T13:48:02.513Z,8.00
2023-03-06T13:50:46.475Z,7.40
2023-03-06T13:53:37.976Z,7.50
2023-03-06T13:56:13.342Z,7.50
2023-03-06T13:58:46.030Z,6.80
2023-03-06T14:01:50.469Z,6.60
2023-03-06T14:04:35.723Z,7.40
2023-03-06T14:07:07.215Z,8.20
2023-03-06T14:09:45.933Z,7.00
2023-03-06T14:12:51.017Z,6.50
2023-03-06T14:15:26.312Z,8.40
2023-03-06T14:18:06.620Z,6.50
2023-03-06T14:20:41.694Z,8.40
2023-03-06T14:23:23.465Z,8.30
2023-03-06T14:28:30.839Z,8.30
2023-03-06T14:30:59.438Z,8.50
2023-03-06T14:33:42.394Z,8.90
2023-03-06T14:36:14.844Z,8.40
2023-03-06T14:38:51.306Z,9.20
2023-03-06T14:41:30.222Z,8.70
2023-03-06T14:44:22.699Z,9.20
2023-03-06T14:46:54.760Z,8.30
2023-03-06T14:49:22.752Z,7.90
2023-03-06T14:51:54.722Z,8.00
2023-03-06T14:54:26.540Z,9.50
2023-03-06T14:57:12.581Z,9.10
2023-03-06T14:59:48.659Z,9.60
2023-03-06T15:02:25.837Z,9.70
2023-03-06T15:04:57.561Z,8.70
2023-03-06T15:07:30.513Z,9.10
2023-03-06T15:09:58.284Z,9.80
2023-03-06T15:12:24.716Z,9.30
2023-03-06T15:15:00.131Z,9.50
2023-03-06T15:17:39.588Z,9.20
2023-03-06T15:20:27.363Z,8.50
2023-03-06T15:22:53.865Z,9.10
2023-03-06T15:25:30.452Z,9.20
2023-03-06T15:28:00.426Z,9.00
2023-03-06T15:30:29.054Z,8.80
2023-03-06T15:33:17.336Z,7.70
2023-03-06T15:35:52.958Z,8.60
2023-03-06T15:38:42.797Z,8.70
2023-03-06T15:41:35.234Z,9.40
2023-03-06T15:44:08.529Z,8.90
2023-03-06T15:46:35.046Z,9.60
2023-03-06T15:49:03.085Z,11.50
2023-03-06T15:51:31.122Z,10.20
2023-03-06T15:54:09.751Z,9.50
2023-03-06T15:56:40.507Z,8.40
2023-03-06T15:59:07.733Z,9.10
2023-03-06T16:01:36.214Z,10.30
2023-03-06T16:04:03.825Z,11.70
2023-03-06T16:06:30.369Z,16.80
2023-03-06T16:08:56.893Z,17.30
2023-03-06T16:11:35.430Z,13.90
2023-03-06T16:14:16.923Z,10.60
2023-03-06T16:16:43.504Z,11.10
2023-03-06T16:19:25.375Z,10.50
2023-03-06T16:21:52.666Z,9.90
2023-03-06T16:24:19.180Z,9.30
2023-03-06T16:26:48.493Z,10.20
2023-03-06T16:29:21.120Z,8.80
2023-03-06T16:31:47.658Z,8.80
2023-03-06T16:34:15.188Z,9.00
2023-03-06T16:36:42.010Z,9.80
2023-03-06T16:39:16.573Z,8.80
2023-03-06T16:41:43.083Z,9.00
2023-03-06T16:44:09.576Z,9.40
2023-03-06T16:46:40.148Z,9.50
2023-03-06T16:49:06.732Z,10.70
2023-03-06T16:51:33.637Z,9.40
2023-03-06T16:54:00.160Z,8.20
2023-03-06T16:56:26.724Z,8.80
2023-03-06T16:58:53.197Z,10.10
2023-03-06T17:01:20.327Z,9.80
2023-03-06T17:03:46.977Z,10.70
2023-03-06T17:06:15.461Z,11.10
2023-03-06T17:08:42.110Z,14.00
2023-03-06T17:11:08.748Z,12.60
2023-03-06T17:13:35.320Z,9.50
2023-03-06T17:16:01.911Z,9.00
2023-03-06T17:18:29.200Z,10.00
2023-03-06T17:20:56.616Z,10.30
2023-03-06T17:23:25.106Z,10.10
2023-03-06T17:26:01.260Z,9.90
2023-03-06T17:28:27.866Z,9.40
2023-03-06T17:30:54.374Z,9.90
2023-03-06T17:33:21.467Z,10.20
2023-03-06T17:35:47.957Z,10.20
2023-03-06T17:38:14.489Z,10.70
2023-03-06T17:40:41.016Z,10.20
2023-03-06T17:43:07.492Z,9.70
2023-03-06T17:45:36.545Z,10.00
2023-03-06T17:48:03.139Z,11.00
2023-03-06T17:50:29.669Z,11.20
2023-03-06T17:52:56.445Z,10.50
2023-03-06T17:55:22.943Z,10.40
2023-03-06T17:57:51.936Z,10.50
2023-03-06T18:00:19.028Z,10.90
2023-03-06T18:02:45.662Z,11.40
2023-03-06T18:05:12.471Z,10.30
2023-03-06T18:07:39.012Z,11.10
2023-03-06T18:10:06.162Z,11.50
2023-03-06T18:12:32.811Z,11.10
2023-03-06T18:14:59.292Z,12.90
2023-03-06T18:17:25.848Z,12.40
2023-03-06T18:19:52.338Z,11.30
2023-03-06T18:22:18.848Z,11.50
2023-03-06T18:24:45.313Z,11.10
2023-03-06T18:27:11.851Z,11.00
2023-03-06T18:29:38.326Z,10.80
2023-03-06T18:32:05.031Z,10.60
2023-03-06T18:34:31.623Z,11.30
2023-03-06T18:36:58.099Z,8.60
2023-03-06T18:39:24.622Z,10.60
2023-03-06T18:41:51.104Z,9.00
2023-03-06T18:44:17.888Z,10.00
2023-03-06T18:46:44.821Z,8.70
2023-03-06T18:49:12.980Z,9.70
2023-03-06T18:51:40.128Z,11.00
2023-03-06T18:54:07.352Z,8.40
2023-03-06T18:56:34.703Z,7.80
2023-03-06T18:59:03.366Z,10.40
2023-03-06T19:01:29.984Z,9.60
2023-03-06T19:04:00.843Z,7.90
2023-03-06T19:06:27.961Z,9.40
2023-03-06T19:08:55.050Z,9.20
2023-03-06T19:11:21.562Z,10.30
2023-03-06T19:13:48.192Z,8.80
2023-03-06T19:16:20.344Z,9.50
2023-03-06T19:18:46.973Z,10.80
2023-03-06T19:21:16.202Z,9.20
2023-03-06T19:23:42.970Z,9.30
2023-03-06T19:26:09.892Z,11.00
2023-03-06T19:28:38.245Z,10.40
2023-03-06T19:31:12.669Z,12.30
2023-03-06T19:33:40.950Z,10.70
2023-03-06T19:36:09.954Z,11.00
2023-03-06T19:38:36.881Z,10.20
2023-03-06T19:41:03.542Z,11.40
2023-03-06T19:43:30.696Z,11.20
2023-03-06T19:45:57.670Z,9.70
2023-03-06T19:48:24.931Z,10.60
2023-03-06T19:50:51.381Z,8.90
2023-03-06T19:53:17.890Z,10.50
2023-03-06T19:55:44.434Z,10.20
2023-03-06T19:58:10.946Z,12.50
2023-03-06T20:00:37.850Z,11.80
2023-03-06T20:03:04.650Z,10.80
2023-03-06T20:05:31.331Z,12.00
2023-03-06T20:07:57.804Z,13.00
2023-03-06T20:10:24.365Z,14.80
2023-03-06T20:12:50.852Z,13.40
2023-03-06T20:15:17.470Z,14.20
2023-03-06T20:17:43.934Z,12.40
2023-03-06T20:20:11.347Z,12.50
2023-03-06T20:22:37.989Z,12.70
2023-03-06T20:25:04.858Z,11.30
2023-03-06T20:27:31.429Z,10.90
2023-03-06T20:29:58.044Z,12.60
2023-03-06T20:32:24.566Z,11.80
2023-03-06T20:34:51.153Z,13.20
2023-03-06T20:37:17.634Z,12.80
2023-03-06T20:39:44.493Z,12.20
2023-03-06T20:42:10.993Z,12.00
2023-03-06T20:44:37.460Z,13.70
2023-03-06T20:47:04.048Z,12.10
2023-03-06T20:49:30.536Z,13.90
2023-03-06T20:51:57.061Z,12.80
2023-03-06T20:54:23.593Z,11.90
2023-03-06T20:56:50.189Z,12.40
2023-03-06T20:59:17.191Z,12.70
2023-03-06T21:01:45.568Z,12.00
2023-03-06T21:04:13.335Z,12.00
2023-03-06T21:06:41.046Z,12.60
2023-03-06T21:09:07.689Z,12.80
2023-03-06T21:11:35.319Z,12.30
2023-03-06T21:14:01.817Z,12.40
2023-03-06T21:16:29.097Z,11.90
2023-03-06T21:18:56.722Z,10.90
2023-03-06T21:21:26.322Z,11.10
2023-03-06T21:23:52.798Z,12.30
2023-03-06T21:26:24.292Z,11.00
2023-03-06T21:28:51.012Z,10.90
2023-03-06T21:31:19.718Z,10.80
2023-03-06T21:33:47.299Z,12.30
2023-03-06T21:36:13.788Z,10.40
2023-03-06T21:38:40.316Z,12.10
2023-03-06T21:41:27.981Z,11.40
2023-03-06T21:43:59.993Z,12.20
2023-03-06T21:46:27.722Z,12.60
2023-03-06T21:48:54.972Z,10.70
2023-03-06T21:51:22.586Z,11.00
2023-03-06T21:53:49.612Z,11.30
2023-03-06T21:56:18.060Z,11.70
2023-03-06T21:58:45.550Z,11.90
2023-03-06T22:01:15.870Z,12.60
2023-03-06T22:03:42.380Z,12.20
2023-03-06T22:06:11.001Z,12.90
2023-03-06T22:08:37.548Z,12.40
2023-03-06T22:11:12.579Z,13.70
2023-03-06T22:13:39.779Z,13.70
2023-03-06T22:16:07.366Z,13.80
2023-03-06T22:18:34.652Z,13.80
2023-03-06T22:21:06.625Z,14.50
2023-03-06T22:23:33.146Z,15.30
2023-03-06T22:26:07.898Z,12.80
2023-03-06T22:28:34.800Z,13.20
2023-03-06T22:31:06.282Z,14.00
2023-03-06T22:33:32.775Z,13.10
2023-03-06T22:36:00.993Z,13.60
2023-03-06T22:38:27.579Z,14.30
2023-03-06T22:40:57.392Z,11.70
2023-03-06T22:43:24.403Z,13.50
2023-03-06T22:45:50.941Z,14.80
2023-03-06T22:48:17.471Z,13.80
2023-03-06T22:50:43.956Z,14.60
2023-03-06T22:53:10.458Z,13.70
2023-03-06T22:55:36.949Z,14.70
2023-03-06T22:58:03.442Z,13.90
2023-03-06T23:00:29.925Z,13.20
2023-03-06T23:02:56.369Z,14.00
2023-03-06T23:05:22.848Z,13.90
2023-03-06T23:07:49.529Z,14.40
2023-03-06T23:10:16.306Z,12.70
2023-03-06T23:12:42.745Z,14.90
2023-03-06T23:15:09.576Z,15.10
2023-03-06T23:17:36.124Z,13.80
2023-03-06T23:20:02.678Z,15.60
2023-03-06T23:22:29.163Z,14.90
2023-03-06T23:24:55.648Z,16.30
2023-03-06T23:27:22.356Z,14.90
2023-03-06T23:29:51.799Z,15.70
2023-03-06T23:32:18.299Z,16.60
2023-03-06T23:34:47.391Z,15.80
2023-03-06T23:37:13.957Z,16.00
2023-03-06T23:39:40.514Z,15.80
2023-03-06T23:42:07.121Z,14.70
2023-03-06T23:44:35.246Z,15.10
2023-03-06T23:47:01.751Z,13.10
2023-03-06T23:49:28.286Z,14.80
2023-03-06T23:51:55.845Z,14.60
2023-03-06T23:54:22.392Z,16.00
2023-03-06T23:56:48.858Z,16.00
2023-03-06T23:59:15.318Z,14.90
